Time;durP1;ratioP1;P1;durP2;ratioP2;P2;SDS_P1;SDS_P2;PMS_P1;PMS_P2;Temp;Humidity;BMP_temperature;BMP_pressure;BME280_temperature;BME280_humidity;BME280_pressure;Samples;Min_cycle;Max_cycle;Signal;HPM_P1;HPM_P2
2021/04/25 00:01:51;;;;;;;8.50;2.43;;;;;6.50;102147.00;;;;10526491;28;20238;-72
2021/04/25 00:06:52;;;;;;;3.20;2.40;;;;;6.40;102162.00;;;;10526113;28;20536;-72
2021/04/25 00:11:54;;;;;;;5.20;2.50;;;;;6.30;102156.00;;;;10492661;28;20702;-72
2021/04/25 00:16:56;;;;;;;4.57;2.47;;;;;6.30;102150.00;;;;10509031;28;20240;-72
2021/04/25 00:21:57;;;;;;;6.47;2.60;;;;;6.20;102153.00;;;;10492674;28;20189;-72
2021/04/25 00:26:58;;;;;;;5.23;2.50;;;;;6.10;102157.00;;;;10466944;28;20201;-72
2021/04/25 00:32:00;;;;;;;6.83;2.60;;;;;6.00;102152.00;;;;10522148;28;20640;-72
2021/04/25 00:37:02;;;;;;;5.30;2.67;;;;;5.90;102152.00;;;;10507496;28;20557;-72
2021/04/25 00:42:03;;;;;;;6.27;3.10;;;;;5.80;102146.00;;;;10523787;28;20386;-72
2021/04/25 00:47:05;;;;;;;7.33;3.30;;;;;5.70;102149.00;;;;10490609;28;20224;-72
2021/04/25 00:52:08;;;;;;;8.53;4.00;;;;;5.70;102143.00;;;;10541518;28;20711;-72
2021/04/25 00:57:14;;;;;;;5.50;3.23;;;;;5.60;102147.00;;;;10542061;28;20258;-72
2021/04/25 01:02:16;;;;;;;6.40;3.23;;;;;5.50;102146.00;;;;10523010;28;20592;-72
2021/04/25 01:07:18;;;;;;;6.87;3.13;;;;;5.50;102128.00;;;;10556760;28;20204;-72
2021/04/25 01:12:19;;;;;;;6.97;3.73;;;;;5.40;102125.00;;;;10506895;28;20213;-71
2021/04/25 01:17:20;;;;;;;6.40;4.27;;;;;5.30;102125.00;;;;10464466;28;20611;-72
2021/04/25 01:22:22;;;;;;;8.00;3.80;;;;;5.30;102127.00;;;;10525656;28;20223;-71
2021/04/25 01:27:23;;;;;;;6.43;3.63;;;;;5.20;102128.00;;;;10507433;28;20224;-72
2021/04/25 01:32:25;;;;;;;7.83;4.63;;;;;5.10;102136.00;;;;10510468;28;20192;-72
2021/04/25 01:37:26;;;;;;;6.53;4.27;;;;;5.10;102133.00;;;;10505280;28;20201;-72
2021/04/25 01:42:34;;;;;;;11.13;5.00;;;;;5.00;102151.00;;;;10473506;28;20664;-72
2021/04/25 01:47:35;;;;;;;10.57;5.17;;;;;5.00;102138.00;;;;10505019;28;20613;-72
2021/04/25 01:52:37;;;;;;;7.93;4.63;;;;;4.90;102154.00;;;;10488765;28;20254;-72
2021/04/25 01:57:39;;;;;;;11.77;5.70;;;;;4.80;102151.00;;;;10539543;28;20201;-72
2021/04/25 02:02:43;;;;;;;9.67;5.37;;;;;4.70;102167.00;;;;10521204;28;20288;-72
2021/04/25 02:07:44;;;;;;;8.53;5.07;;;;;4.60;102162.00;;;;10521955;28;20547;-72
2021/04/25 02:12:46;;;;;;;10.17;5.73;;;;;4.60;102168.00;;;;10522164;28;20238;-72
2021/04/25 02:17:47;;;;;;;13.37;6.90;;;;;4.50;102170.00;;;;10504918;28;20277;-72
2021/04/25 02:22:49;;;;;;;11.80;6.30;;;;;4.50;102172.00;;;;10504606;28;20200;-72
2021/04/25 02:27:51;;;;;;;12.67;5.70;;;;;4.40;102180.00;;;;10555385;28;20221;-71
2021/04/25 02:32:53;;;;;;;10.43;5.77;;;;;4.30;102177.00;;;;10504441;28;20564;-72
2021/04/25 02:37:56;;;;;;;12.27;6.23;;;;;4.30;102181.00;;;;10537373;28;20213;-72
2021/04/25 02:42:59;;;;;;;12.10;6.37;;;;;4.20;102183.00;;;;10536989;28;20191;-72
2021/04/25 02:48:03;;;;;;;14.13;6.10;;;;;4.20;102181.00;;;;10503744;28;20220;-71
2021/04/25 02:53:06;;;;;;;15.47;6.33;;;;;4.10;102191.00;;;;10538266;28;20189;-72
2021/04/25 02:58:08;;;;;;;10.73;6.40;;;;;4.00;102191.00;;;;10520538;28;20213;-72
2021/04/25 03:03:09;;;;;;;12.57;6.83;;;;;4.00;102191.00;;;;10537035;28;20189;-71
2021/04/25 03:08:11;;;;;;;13.07;6.70;;;;;3.90;102177.00;;;;10525661;28;20224;-71
2021/04/25 03:13:12;;;;;;;15.93;6.43;;;;;3.90;102185.00;;;;10494662;28;20729;-72
2021/04/25 03:18:14;;;;;;;8.97;5.23;;;;;3.80;102180.00;;;;10494051;28;20299;-72
2021/04/25 03:23:15;;;;;;;13.27;6.67;;;;;3.70;102180.00;;;;10544124;28;20280;-72
2021/04/25 03:28:17;;;;;;;11.93;6.67;;;;;3.70;102178.00;;;;10544259;28;20201;-72
2021/04/25 03:33:18;;;;;;;13.77;7.30;;;;;3.60;102181.00;;;;10526667;28;20196;-71
2021/04/25 03:38:19;;;;;;;13.57;7.30;;;;;3.60;102184.00;;;;10509722;28;20240;-72
2021/04/25 03:43:21;;;;;;;13.10;6.33;;;;;3.60;102180.00;;;;10543740;28;20194;-72
2021/04/25 03:48:22;;;;;;;15.00;7.00;;;;;3.50;102181.00;;;;10526700;28;20589;-71
2021/04/25 03:53:24;;;;;;;11.37;7.07;;;;;3.40;102184.00;;;;10493382;28;20238;-71
2021/04/25 03:58:25;;;;;;;10.63;6.37;;;;;3.30;102188.00;;;;10568714;28;20196;-72
2021/04/25 04:03:26;;;;;;;16.17;7.80;;;;;3.20;102186.00;;;;10527097;28;20658;-72
2021/04/25 04:08:28;;;;;;;15.30;7.13;;;;;3.10;102189.00;;;;10509055;28;20212;-71
2021/04/25 04:13:29;;;;;;;13.73;7.53;;;;;3.10;102187.00;;;;10508955;28;20535;-72
2021/04/25 04:18:31;;;;;;;16.13;7.50;;;;;3.10;102201.00;;;;10524539;28;20193;-71
2021/04/25 04:23:32;;;;;;;13.10;7.37;;;;;3.00;102196.00;;;;10507982;28;20220;-71
2021/04/25 04:28:33;;;;;;;14.20;7.33;;;;;2.90;102194.00;;;;10525397;28;20193;-71
2021/04/25 04:33:35;;;;;;;14.63;7.03;;;;;2.90;102208.00;;;;10497345;28;20647;-71
2021/04/25 04:38:37;;;;;;;19.13;8.97;;;;;2.90;102209.00;;;;10507580;28;20205;-71
2021/04/25 04:43:38;;;;;;;17.67;7.37;;;;;2.90;102203.00;;;;10536934;28;20205;-71
2021/04/25 04:48:40;;;;;;;17.50;7.90;;;;;2.90;102192.00;;;;10516114;28;20238;-71
2021/04/25 04:53:41;;;;;;;19.90;8.67;;;;;3.00;102193.00;;;;10506892;28;20197;-71
2021/04/25 04:58:42;;;;;;;15.03;7.90;;;;;3.10;102205.00;;;;10524035;28;20255;-71
2021/04/25 05:03:44;;;;;;;14.43;7.53;;;;;3.30;102202.00;;;;10524653;28;20195;-71
2021/04/25 05:08:45;;;;;;;18.40;8.77;;;;;3.50;102214.00;;;;10472963;28;20594;-71
2021/04/25 05:13:46;;;;;;;16.17;8.80;;;;;3.70;102204.00;;;;10541773;28;20513;-72
2021/04/25 05:18:49;;;;;;;14.20;9.13;;;;;4.30;102218.00;;;;10506328;28;20209;-71
2021/04/25 05:23:50;;;;;;;14.27;7.70;;;;;5.10;102218.00;;;;10468194;28;20250;-71
2021/04/25 05:28:52;;;;;;;13.90;8.23;;;;;5.60;102226.00;;;;10522646;28;20188;-71
2021/04/25 05:33:53;;;;;;;15.10;8.97;;;;;5.60;102227.00;;;;10505635;28;20193;-71
2021/04/25 05:38:55;;;;;;;14.50;7.73;;;;;5.80;102236.00;;;;10488539;28;20196;-72
2021/04/25 05:43:56;;;;;;;16.70;7.53;;;;;6.00;102227.00;;;;10505031;28;20204;-71
2021/04/25 05:48:57;;;;;;;15.30;8.03;;;;;6.20;102230.00;;;;10540406;28;20667;-71
2021/04/25 05:53:59;;;;;;;12.97;7.40;;;;;6.40;102240.00;;;;10496997;28;20246;-72
2021/04/25 05:59:01;;;;;;;12.43;7.27;;;;;6.70;102232.00;;;;10538916;28;20208;-71
2021/04/25 06:04:05;;;;;;;15.90;7.97;;;;;7.20;102233.00;;;;10504324;28;20189;-72
2021/04/25 06:09:06;;;;;;;12.50;6.83;;;;;7.70;102237.00;;;;10505089;28;20201;-72
2021/04/25 06:14:08;;;;;;;12.10;6.70;;;;;8.00;102233.00;;;;10488379;28;20216;-72
2021/04/25 06:19:09;;;;;;;9.63;5.70;;;;;8.40;102232.00;;;;10504155;28;20208;-72
2021/04/25 06:24:11;;;;;;;8.97;5.57;;;;;8.70;102234.00;;;;10510542;28;20199;-72
2021/04/25 06:29:12;;;;;;;9.57;5.47;;;;;9.00;102230.00;;;;10532101;28;20249;-72
2021/04/25 06:34:19;;;;;;;11.20;5.20;;;;;9.30;102230.00;;;;10525981;28;20203;-73
2021/04/25 06:39:20;;;;;;;9.90;5.37;;;;;9.50;102227.00;;;;10495406;28;20696;-72
2021/04/25 06:44:21;;;;;;;7.27;4.60;;;;;9.70;102235.00;;;;10520416;28;20582;-72
2021/04/25 06:49:23;;;;;;;9.77;4.77;;;;;9.90;102233.00;;;;10495051;28;20196;-72
2021/04/25 06:54:24;;;;;;;11.63;4.40;;;;;10.20;102228.00;;;;10511423;28;20249;-72
2021/04/25 06:59:26;;;;;;;8.93;3.97;;;;;10.40;102242.00;;;;10525384;28;20533;-71
2021/04/25 07:04:32;;;;;;;9.00;3.63;;;;;10.40;102232.00;;;;10502809;28;20190;-72
2021/04/25 07:09:40;;;;;;;8.37;4.13;;;;;10.60;102221.00;;;;10501986;28;20213;-72
2021/04/25 07:14:42;;;;;;;7.50;4.13;;;;;10.80;102226.00;;;;10484974;28;20203;-72
2021/04/25 07:19:43;;;;;;;6.53;3.60;;;;;11.10;102231.00;;;;10510002;28;20273;-72
2021/04/25 07:24:44;;;;;;;6.40;4.33;;;;;11.60;102240.00;;;;10556494;28;20197;-72
2021/04/25 07:29:47;;;;;;;8.53;4.43;;;;;11.90;102242.00;;;;10509694;28;20697;-72
2021/04/25 07:34:49;;;;;;;6.07;3.90;;;;;11.40;102254.00;;;;10541461;28;20220;-73
2021/04/25 07:39:55;;;;;;;8.47;4.30;;;;;11.40;102243.00;;;;10527506;28;20502;-72
2021/04/25 07:44:56;;;;;;;6.53;4.27;;;;;11.90;102236.00;;;;10524165;28;20197;-72
2021/04/25 07:49:58;;;;;;;11.10;4.67;;;;;11.50;102236.00;;;;10471118;28;20279;-72
2021/04/25 07:54:59;;;;;;;9.93;4.73;;;;;11.10;102239.00;;;;10526775;28;20245;-72
2021/04/25 08:00:01;;;;;;;9.33;4.53;;;;;12.10;102230.00;;;;10549211;28;20284;-72
2021/04/25 08:05:07;;;;;;;7.63;4.30;;;;;12.80;102225.00;;;;10512556;28;20220;-72
2021/04/25 08:10:09;;;;;;;6.77;3.67;;;;;13.10;102230.00;;;;10483626;28;20276;-72
2021/04/25 08:15:11;;;;;;;7.73;4.10;;;;;12.90;102240.00;;;;10530438;28;20185;-72
2021/04/25 08:20:13;;;;;;;8.07;3.90;;;;;12.20;102234.00;;;;10507640;28;20208;-72
2021/04/25 08:25:14;;;;;;;6.60;4.00;;;;;13.20;102225.00;;;;10525073;28;20579;-72
2021/04/25 08:30:16;;;;;;;7.63;3.47;;;;;13.90;102211.00;;;;10524186;28;20559;-72
2021/04/25 08:35:18;;;;;;;9.07;3.97;;;;;14.60;102217.00;;;;10539324;28;20643;-70
2021/04/25 08:40:21;;;;;;;9.50;4.23;;;;;14.40;102224.00;;;;10506495;28;20298;-70
2021/04/25 08:45:22;;;;;;;10.03;3.80;;;;;14.10;102229.00;;;;10523181;28;20288;-70
2021/04/25 08:50:28;;;;;;;6.73;3.80;;;;;13.60;102239.00;;;;10512284;28;20194;-70
2021/04/25 08:55:38;;;;;;;6.80;3.83;;;;;14.00;102226.00;;;;10517492;28;20217;-70
2021/04/25 09:00:42;;;;;;;6.40;3.90;;;;;14.60;102229.00;;;;10500883;28;20267;-71
2021/04/25 09:05:44;;;;;;;5.27;3.23;;;;;14.40;102221.00;;;;10487841;28;20262;-70
2021/04/25 09:10:52;;;;;;;8.70;4.33;;;;;14.80;102233.00;;;;10488797;28;20283;-70
2021/04/25 09:15:55;;;;;;;6.30;3.90;;;;;15.00;102217.00;;;;10529985;28;20196;-70
2021/04/25 09:21:05;;;;;;;7.37;4.23;;;;;14.90;102224.00;;;;10504278;28;20208;-70
2021/04/25 09:26:08;;;;;;;8.43;4.17;;;;;14.90;102219.00;;;;10521822;28;20284;-70
2021/04/25 09:31:16;;;;;;;6.80;3.83;;;;;15.20;102224.00;;;;10520743;28;20223;-70
2021/04/25 09:36:20;;;;;;;8.57;4.10;;;;;15.90;102229.00;;;;10538762;28;20181;-70
2021/04/25 09:41:30;;;;;;;7.73;4.20;;;;;16.10;102231.00;;;;10519800;28;20200;-70
2021/04/25 09:46:51;;;;;;;11.07;4.30;;;;;15.70;102211.00;;;;10518278;28;20196;-70
2021/04/25 09:51:52;;;;;;;8.93;4.00;;;;;15.60;102212.00;;;;10496049;28;20212;-71
2021/04/25 09:56:59;;;;;;;6.03;3.93;;;;;15.40;102215.00;;;;10507093;28;20213;-70
2021/04/25 10:02:07;;;;;;;6.93;3.97;;;;;15.80;102203.00;;;;10535589;28;20213;-70
2021/04/25 10:07:13;;;;;;;9.97;4.50;;;;;15.70;102218.00;;;;10507385;28;20205;-71
2021/04/25 10:12:14;;;;;;;6.83;3.77;;;;;15.70;102208.00;;;;10536343;28;20188;-71
2021/04/25 10:17:15;;;;;;;7.23;4.67;;;;;16.40;102199.00;;;;10496241;28;20284;-70
2021/04/25 10:22:19;;;;;;;5.10;3.80;;;;;16.20;102193.00;;;;10514059;28;20220;-70
2021/04/25 10:27:25;;;;;;;5.43;3.50;;;;;16.30;102187.00;;;;10515300;28;20227;-70
2021/04/25 10:32:27;;;;;;;7.60;4.23;;;;;16.50;102192.00;;;;10502288;28;20189;-70
2021/04/25 10:37:39;;;;;;;9.77;4.50;;;;;16.40;102187.00;;;;10518973;28;20662;-72
2021/04/25 10:42:52;;;;;;;7.43;3.87;;;;;16.80;102183.00;;;;10513316;28;20270;-71
2021/04/25 10:48:19;;;;;;;8.23;3.20;;;;;17.10;102170.00;;;;10482076;28;20548;-71
2021/04/25 10:53:46;;;;;;;6.90;3.70;;;;;17.30;102164.00;;;;10529065;28;20188;-71
2021/04/25 10:59:23;;;;;;;8.37;3.80;;;;;17.40;102167.00;;;;10490775;28;20708;-72
2021/04/25 11:04:56;;;;;;;9.50;4.13;;;;;17.20;102164.00;;;;10530252;28;20667;-72
2021/04/25 11:09:58;;;;;;;5.37;3.50;;;;;17.10;102160.00;;;;10518495;28;20575;-71
2021/04/25 11:14:59;;;;;;;7.77;3.80;;;;;17.20;102148.00;;;;10504454;28;20181;-71
2021/04/25 11:20:30;;;;;;;7.03;3.87;;;;;17.30;102152.00;;;;10537705;28;20705;-71
2021/04/25 11:25:41;;;;;;;6.87;3.30;;;;;17.60;102149.00;;;;10513753;28;20201;-72
2021/04/25 11:30:43;;;;;;;7.97;3.90;;;;;17.60;102138.00;;;;10493227;28;20205;-71
2021/04/25 11:35:44;;;;;;;6.13;3.47;;;;;17.30;102145.00;;;;10543458;28;20865;-72
2021/04/25 11:40:45;;;;;;;7.73;4.30;;;;;17.20;102144.00;;;;10513030;28;20963;-71
2021/04/25 11:45:47;;;;;;;9.33;3.67;;;;;17.30;102142.00;;;;10528528;28;20193;-70
2021/04/25 11:50:48;;;;;;;5.90;3.63;;;;;17.60;102153.00;;;;10523351;28;20613;-71
2021/04/25 11:55:49;;;;;;;8.80;4.40;;;;;17.60;102151.00;;;;10542137;28;20233;-71
2021/04/25 12:00:51;;;;;;;9.00;4.40;;;;;18.00;102137.00;;;;10501887;28;20205;-71
2021/04/25 12:05:55;;;;;;;5.97;4.03;;;;;18.10;102151.00;;;;10508082;28;20220;-71
2021/04/25 12:10:57;;;;;;;7.70;3.90;;;;;18.10;102136.00;;;;10490655;28;20657;-71
2021/04/25 12:16:04;;;;;;;7.20;3.33;;;;;18.20;102141.00;;;;10523451;28;20185;-71
2021/04/25 12:21:20;;;;;;;8.80;4.17;;;;;18.60;102152.00;;;;10499240;28;20214;-72
2021/04/25 12:26:24;;;;;;;11.30;4.37;;;;;18.50;102137.00;;;;10497362;28;20201;-71
2021/04/25 12:31:39;;;;;;;6.40;3.90;;;;;18.80;102132.00;;;;10450902;28;20198;-71
2021/04/25 12:36:51;;;;;;;8.07;4.20;;;;;19.10;102128.00;;;;10506648;28;20212;-71
2021/04/25 12:41:53;;;;;;;8.15;4.45;;;;;19.00;102132.00;;;;10521274;28;20225;-71
2021/04/25 12:47:01;;;;;;;7.90;3.78;;;;;18.70;102117.00;;;;10507496;28;20313;-71
2021/04/25 12:52:04;;;;;;;10.15;4.63;;;;;18.50;102112.00;;;;10522515;28;20671;-71
2021/04/25 12:57:06;;;;;;;8.40;4.03;;;;;18.60;102109.00;;;;10488592;28;20254;-71
2021/04/25 13:02:13;;;;;;;7.43;4.17;;;;;18.90;102105.00;;;;10510783;28;20194;-72
2021/04/25 13:07:19;;;;;;;5.97;4.07;;;;;19.00;102101.00;;;;10514219;28;20209;-72
2021/04/25 13:12:23;;;;;;;6.28;4.18;;;;;19.10;102086.00;;;;10512716;28;20275;-71
2021/04/25 13:17:26;;;;;;;8.87;4.87;;;;;19.30;102082.00;;;;10504416;28;20205;-71
2021/04/25 13:22:28;;;;;;;6.88;4.75;;;;;19.50;102083.00;;;;10504745;28;20193;-71
2021/04/25 13:27:30;;;;;;;10.57;4.40;;;;;20.40;102075.00;;;;10519130;28;20586;-71
2021/04/25 13:32:32;;;;;;;10.07;4.75;;;;;21.80;102079.00;;;;10536462;28;20205;-72
2021/04/25 13:37:33;;;;;;;11.13;4.25;;;;;23.10;102055.00;;;;10504414;28;20212;-71
2021/04/25 13:42:35;;;;;;;6.15;4.03;;;;;24.00;102059.00;;;;10520152;28;20666;-72
2021/04/25 13:47:36;;;;;;;11.43;4.43;;;;;24.70;102053.00;;;;10486931;28;20209;-72
2021/04/25 13:52:37;;;;;;;7.45;3.88;;;;;25.60;102051.00;;;;10518825;28;20203;-72
2021/04/25 13:57:39;;;;;;;7.65;4.38;;;;;25.80;102037.00;;;;10535616;28;20236;-72
2021/04/25 14:02:41;;;;;;;6.13;3.88;;;;;25.70;102024.00;;;;10519990;28;20595;-71
2021/04/25 14:07:43;;;;;;;7.88;4.40;;;;;26.10;102016.00;;;;10497745;28;20878;-71
2021/04/25 14:12:45;;;;;;;9.10;3.97;;;;;26.60;102006.00;;;;10497645;28;20292;-72
2021/04/25 14:17:47;;;;;;;7.07;4.13;;;;;27.40;102018.00;;;;10508258;28;20216;-71
2021/04/25 14:22:49;;;;;;;9.75;3.92;;;;;27.80;102021.00;;;;10524093;28;20183;-71
2021/04/25 14:27:52;;;;;;;10.15;3.20;;;;;27.50;102010.00;;;;10498552;28;20197;-71
2021/04/25 14:32:53;;;;;;;10.35;3.60;;;;;26.30;102009.00;;;;10483073;28;20189;-71
2021/04/25 14:37:55;;;;;;;5.90;3.33;;;;;27.20;101996.00;;;;10487315;28;20216;-71
2021/04/25 14:42:57;;;;;;;10.02;3.20;;;;;28.20;101992.00;;;;10488093;28;20216;-71
2021/04/25 14:48:00;;;;;;;6.70;3.03;;;;;29.20;101978.00;;;;10503139;28;20216;-71
2021/04/25 14:53:03;;;;;;;8.05;3.33;;;;;29.70;101975.00;;;;10517978;28;20250;-71
2021/04/25 14:58:04;;;;;;;5.78;3.33;;;;;29.50;101980.00;;;;10498606;28;20209;-71
2021/04/25 15:03:05;;;;;;;5.38;3.10;;;;;29.40;101968.00;;;;10521939;28;20276;-71
2021/04/25 15:08:07;;;;;;;9.65;3.17;;;;;29.60;101964.00;;;;10516797;28;20236;-72
2021/04/25 15:13:09;;;;;;;8.75;3.45;;;;;28.10;101975.00;;;;10491890;28;20201;-71
2021/04/25 15:18:12;;;;;;;9.52;3.30;;;;;25.10;101957.00;;;;10503205;28;20215;-71
2021/04/25 15:23:13;;;;;;;13.73;3.58;;;;;21.60;101967.00;;;;10524848;28;20193;-72
2021/04/25 15:28:14;;;;;;;9.45;3.05;;;;;20.60;101962.00;;;;10509810;28;20196;-71
2021/04/25 15:33:16;;;;;;;4.13;2.88;;;;;23.70;101946.00;;;;10510736;28;20228;-72
2021/04/25 15:38:18;;;;;;;7.63;3.67;;;;;19.90;101958.00;;;;10557789;28;20209;-71
2021/04/25 15:43:19;;;;;;;8.55;2.95;;;;;25.60;101937.00;;;;10501509;28;20198;-71
2021/04/25 15:48:21;;;;;;;8.60;3.30;;;;;24.70;101954.00;;;;10522714;28;20288;-71
2021/04/25 15:53:24;;;;;;;8.02;3.28;;;;;21.60;101958.00;;;;10536811;28;20249;-71
2021/04/25 15:58:27;;;;;;;6.47;2.90;;;;;19.40;101946.00;;;;10527190;28;20209;-71
2021/04/25 16:03:31;;;;;;;6.35;2.85;;;;;19.80;101938.00;;;;10521068;28;20212;-71
2021/04/25 16:08:32;;;;;;;7.30;3.03;;;;;19.70;101947.00;;;;10496759;28;20588;-71
2021/04/25 16:13:34;;;;;;;9.43;3.63;;;;;17.80;101953.00;;;;10500556;28;20737;-70
2021/04/25 16:18:35;;;;;;;6.33;3.40;;;;;16.50;101948.00;;;;10499290;28;20253;-71
2021/04/25 16:23:36;;;;;;;12.00;4.23;;;;;15.90;101940.00;;;;10467262;28;20208;-70
2021/04/25 16:28:38;;;;;;;9.17;2.97;;;;;15.50;101936.00;;;;10523904;28;20193;-71
2021/04/25 16:33:39;;;;;;;8.37;4.33;;;;;15.20;101944.00;;;;10522985;28;20298;-71
2021/04/25 16:38:40;;;;;;;8.67;4.07;;;;;14.90;101925.00;;;;10522327;28;20311;-70
2021/04/25 16:43:42;;;;;;;10.67;3.13;;;;;14.80;101933.00;;;;10471500;28;20284;-70
2021/04/25 16:48:43;;;;;;;10.57;3.17;;;;;14.60;101923.00;;;;10509420;28;20239;-70
2021/04/25 16:53:45;;;;;;;9.93;2.70;;;;;14.40;101918.00;;;;10500316;28;21103;-70
2021/04/25 16:58:48;;;;;;;9.57;3.60;;;;;14.30;101913.00;;;;10513439;28;20201;-71
2021/04/25 17:03:50;;;;;;;10.00;3.40;;;;;14.30;101909.00;;;;10490484;28;20615;-70
2021/04/25 17:08:52;;;;;;;7.93;3.20;;;;;14.00;101903.00;;;;10511957;28;20236;-70
2021/04/25 17:13:54;;;;;;;4.90;2.80;;;;;13.90;101898.00;;;;10539478;28;20640;-71
2021/04/25 17:18:55;;;;;;;6.60;2.77;;;;;13.70;101896.00;;;;10493903;28;20205;-71
2021/04/25 17:23:58;;;;;;;5.27;2.50;;;;;13.50;101898.00;;;;10523120;28;20185;-70
2021/04/25 17:29:00;;;;;;;8.70;2.80;;;;;13.50;101898.00;;;;10522305;28;20243;-71
2021/04/25 17:34:02;;;;;;;6.43;2.70;;;;;13.30;101901.00;;;;10497139;28;20197;-72
2021/04/25 17:39:05;;;;;;;7.90;2.90;;;;;13.10;101898.00;;;;10505067;28;20587;-71
2021/04/25 17:44:06;;;;;;;5.33;2.60;;;;;13.00;101893.00;;;;10504037;28;20236;-71
2021/04/25 17:49:08;;;;;;;9.30;3.83;;;;;12.80;101885.00;;;;10504251;28;20624;-71
2021/04/25 17:54:10;;;;;;;13.90;2.90;;;;;12.70;101881.00;;;;10554885;28;20196;-72
2021/04/25 17:59:12;;;;;;;5.47;2.97;;;;;12.50;101877.00;;;;10538274;28;20235;-71
2021/04/25 18:04:13;;;;;;;9.73;3.07;;;;;12.40;101871.00;;;;10520448;28;20571;-71
2021/04/25 18:09:15;;;;;;;10.27;3.27;;;;;12.20;101860.00;;;;10497768;28;20200;-71
2021/04/25 18:14:17;;;;;;;14.90;3.23;;;;;12.00;101832.00;;;;10503845;28;20215;-70
2021/04/25 18:19:19;;;;;;;6.40;2.70;;;;;11.90;101830.00;;;;10503383;28;20266;-70
2021/04/25 18:24:20;;;;;;;7.97;3.07;;;;;11.70;101821.00;;;;10508814;28;20201;-71
2021/04/25 18:29:21;;;;;;;11.87;3.50;;;;;11.50;101824.00;;;;10519852;28;20184;-71
2021/04/25 18:34:23;;;;;;;9.03;3.40;;;;;11.30;101825.00;;;;10520006;28;20246;-71
2021/04/25 18:39:24;;;;;;;9.30;3.27;;;;;11.00;101830.00;;;;10509131;28;20205;-71
2021/04/25 18:44:26;;;;;;;5.33;2.90;;;;;10.70;101830.00;;;;10469367;28;20237;-71
2021/04/25 18:49:31;;;;;;;11.10;3.17;;;;;10.50;101833.00;;;;10486184;28;20193;-71
2021/04/25 18:54:32;;;;;;;9.80;2.87;;;;;10.20;101834.00;;;;10529845;28;20205;-71
2021/04/25 18:59:35;;;;;;;7.30;2.87;;;;;10.10;101845.00;;;;10528251;28;20205;-71
2021/04/25 19:04:36;;;;;;;9.73;3.27;;;;;9.90;101845.00;;;;10543813;28;20295;-71
2021/04/25 19:09:37;;;;;;;9.47;3.37;;;;;9.80;101847.00;;;;10510781;28;20562;-71
2021/04/25 19:14:43;;;;;;;5.37;2.93;;;;;9.60;101860.00;;;;10509901;28;20200;-71
2021/04/25 19:19:45;;;;;;;5.00;2.97;;;;;9.50;101857.00;;;;10527718;28;20288;-71
2021/04/25 19:24:46;;;;;;;7.00;3.30;;;;;9.30;101859.00;;;;10526806;28;20215;-71
2021/04/25 19:29:48;;;;;;;8.77;3.63;;;;;9.20;101869.00;;;;10510987;28;20219;-71
2021/04/25 19:34:49;;;;;;;12.97;3.77;;;;;9.20;101873.00;;;;10492859;28;20287;-71
2021/04/25 19:39:50;;;;;;;7.97;3.50;;;;;9.10;101875.00;;;;10526557;28;20789;-71
2021/04/25 19:44:52;;;;;;;8.37;2.90;;;;;9.00;101872.00;;;;10509363;28;20224;-71
2021/04/25 19:49:53;;;;;;;6.50;2.90;;;;;8.90;101885.00;;;;10526550;28;20177;-71
2021/04/25 19:54:55;;;;;;;9.83;3.47;;;;;8.80;101891.00;;;;10508744;28;20246;-71
2021/04/25 19:59:59;;;;;;;7.33;3.83;;;;;8.70;101896.00;;;;10526051;28;20254;-71
2021/04/25 20:05:14;;;;;;;9.13;3.33;;;;;8.50;101908.00;;;;10516252;28;20217;-71
2021/04/25 20:10:25;;;;;;;8.07;3.57;;;;;8.40;101902.00;;;;10502489;28;20267;-72
2021/04/25 20:15:29;;;;;;;13.40;3.00;;;;;8.30;101903.00;;;;10528034;28;20782;-71
2021/04/25 20:20:33;;;;;;;8.50;3.47;;;;;8.20;101904.00;;;;10491754;28;20541;-71
2021/04/25 20:25:35;;;;;;;11.03;4.30;;;;;8.10;101905.00;;;;10491288;28;20264;-71
2021/04/25 20:31:00;;;;;;;6.00;3.37;;;;;8.00;101903.00;;;;10512289;28;20191;-71
2021/04/25 20:36:03;;;;;;;9.13;3.00;;;;;7.90;101892.00;;;;10507902;28;20651;-71
2021/04/25 20:41:04;;;;;;;8.80;3.40;;;;;7.80;101901.00;;;;10524208;28;20262;-71
2021/04/25 20:46:06;;;;;;;5.93;2.90;;;;;7.70;101911.00;;;;10524525;28;20220;-71
2021/04/25 20:51:07;;;;;;;9.37;3.07;;;;;7.50;101919.00;;;;10490986;28;20238;-71
2021/04/25 20:56:08;;;;;;;12.40;3.73;;;;;7.40;101915.00;;;;10506521;28;20224;-71
2021/04/25 21:01:10;;;;;;;13.53;4.67;;;;;7.30;101912.00;;;;10522636;28;20197;-71
2021/04/25 21:06:11;;;;;;;7.57;3.27;;;;;7.20;101907.00;;;;10541649;28;20223;-72
2021/04/25 21:11:13;;;;;;;8.13;3.30;;;;;7.10;101907.00;;;;10506851;28;20184;-71
2021/04/25 21:16:14;;;;;;;11.87;3.80;;;;;7.00;101910.00;;;;10505963;28;20208;-71
2021/04/25 21:21:16;;;;;;;11.30;3.97;;;;;6.90;101904.00;;;;10489197;28;20261;-71
2021/04/25 21:26:17;;;;;;;12.13;4.30;;;;;6.80;101911.00;;;;10505248;28;20246;-71
2021/04/25 21:31:20;;;;;;;6.33;3.13;;;;;6.70;101893.00;;;;10505413;28;20200;-71
2021/04/25 21:36:22;;;;;;;7.17;3.50;;;;;6.60;101903.00;;;;10522236;28;20752;-70
2021/04/25 21:41:24;;;;;;;7.70;3.03;;;;;6.60;101911.00;;;;10522192;28;20205;-71
2021/04/25 21:46:26;;;;;;;6.50;2.90;;;;;6.40;101905.00;;;;10464162;28;20205;-71
2021/04/25 21:51:28;;;;;;;8.43;3.30;;;;;6.30;101911.00;;;;10513258;28;20194;-71
2021/04/25 21:56:30;;;;;;;6.07;2.77;;;;;6.20;101904.00;;;;10534647;28;20193;-71
2021/04/25 22:01:32;;;;;;;7.13;3.47;;;;;6.10;101897.00;;;;10522329;28;20311;-71
2021/04/25 22:06:34;;;;;;;8.60;3.83;;;;;6.00;101912.00;;;;10521606;28;20243;-71
2021/04/25 22:11:37;;;;;;;10.00;3.43;;;;;6.00;101904.00;;;;10519762;28;20220;-72
2021/04/25 22:16:39;;;;;;;8.37;3.43;;;;;5.90;101904.00;;;;10539583;28;20197;-71
2021/04/25 22:21:41;;;;;;;8.83;3.10;;;;;5.80;101906.00;;;;10505003;28;20651;-71
2021/04/25 22:26:43;;;;;;;7.97;3.60;;;;;5.70;101901.00;;;;10538220;28;20234;-71
2021/04/25 22:31:45;;;;;;;11.00;3.60;;;;;5.60;101900.00;;;;10520786;28;20245;-72
2021/04/25 22:36:47;;;;;;;7.20;3.50;;;;;5.60;101886.00;;;;10520877;28;20185;-71
2021/04/25 22:41:49;;;;;;;10.40;4.00;;;;;5.50;101899.00;;;;10520909;28;20728;-72
2021/04/25 22:46:51;;;;;;;11.90;3.70;;;;;5.40;101894.00;;;;10520638;28;20193;-71
2021/04/25 22:51:54;;;;;;;6.87;3.20;;;;;5.40;101887.00;;;;10520779;28;20208;-72
2021/04/25 22:56:57;;;;;;;8.77;3.40;;;;;5.40;101887.00;;;;10521050;28;20211;-71
2021/04/25 23:01:59;;;;;;;8.37;3.27;;;;;5.30;101888.00;;;;10533047;28;20188;-72
2021/04/25 23:07:01;;;;;;;8.83;3.30;;;;;5.20;101889.00;;;;10519880;28;20213;-71
2021/04/25 23:12:03;;;;;;;16.20;4.07;;;;;5.10;101884.00;;;;10520506;28;20181;-72
2021/04/25 23:17:07;;;;;;;14.53;4.10;;;;;5.10;101872.00;;;;10537004;28;20280;-72
2021/04/25 23:22:09;;;;;;;9.43;3.87;;;;;5.10;101885.00;;;;10520972;28;20216;-72
2021/04/25 23:27:11;;;;;;;15.97;3.70;;;;;5.00;101875.00;;;;10527938;28;20594;-72
2021/04/25 23:32:14;;;;;;;8.73;3.67;;;;;4.90;101874.00;;;;10511660;28;20181;-72
2021/04/25 23:37:16;;;;;;;9.60;3.80;;;;;4.80;101870.00;;;;10511508;28;20192;-72
2021/04/25 23:42:18;;;;;;;9.33;3.73;;;;;4.70;101865.00;;;;10527581;28;20207;-72
2021/04/25 23:47:20;;;;;;;16.93;3.70;;;;;4.60;101849.00;;;;10526675;28;20180;-72
2021/04/25 23:52:22;;;;;;;9.63;3.30;;;;;4.60;101855.00;;;;10526922;28;20554;-71
2021/04/25 23:57:24;;;;;;;12.63;3.70;;;;;4.50;101854.00;;;;10528051;28;20207;-72
